Time;durP1;ratioP1;P1;durP2;ratioP2;P2;SDS_P1;SDS_P2;PMS_P1;PMS_P2;Temp;Humidity;BMP_temperature;BMP_pressure;BME280_temperature;BME280_humidity;BME280_pressure;Samples;Min_cycle;Max_cycle;Signal;HPM_P1;HPM_P2
2023/02/02 00:02:06;;;;;;;10.18;3.45;;;;;;;-144.31;100.00;58022.63;5008472;28;20046;-54
2023/02/02 00:05:22;;;;;;;13.30;3.15;;;;;;;-144.31;100.00;58022.63;5008820;28;20127;-53
2023/02/02 00:08:38;;;;;;;9.05;2.53;;;;;;;-144.31;100.00;58022.63;5009169;28;20053;-50
2023/02/02 00:11:26;;;;;;;10.73;2.85;;;;;;;-144.31;100.00;58022.63;5021497;28;20545;-52
2023/02/02 00:14:15;;;;;;;9.77;3.00;;;;;;;-144.31;100.00;58022.63;5008777;28;20064;-53
2023/02/02 00:17:19;;;;;;;8.55;3.03;;;;;;;-144.31;100.00;58022.63;5007561;28;20052;-54
2023/02/02 00:20:37;;;;;;;15.75;3.55;;;;;;;-144.31;100.00;58022.63;5009370;28;20100;-51
2023/02/02 00:23:39;;;;;;;14.60;3.38;;;;;;;-144.31;100.00;58022.63;5010587;28;20049;-52
2023/02/02 00:26:33;;;;;;;10.32;3.50;;;;;;;-144.31;100.00;58022.63;5007689;28;20049;-52
2023/02/02 00:29:42;;;;;;;9.13;2.63;;;;;;;-144.31;100.00;58022.63;5023751;28;20078;-49
2023/02/02 00:32:40;;;;;;;12.13;3.53;;;;;;;-144.31;100.00;58022.63;5007719;28;20088;-52
2023/02/02 00:35:47;;;;;;;15.93;2.92;;;;;;;-144.31;100.00;58022.63;5024000;28;20065;-47
2023/02/02 00:38:58;;;;;;;;;;;;;;;-144.31;100.00;58022.63;5022455;28;20046;-49
2023/02/02 00:42:14;;;;;;;9.82;2.58;;;;;;;-144.31;100.00;58022.63;5006892;28;19917;-56
2023/02/02 00:45:25;;;;;;;5.40;2.78;;;;;;;-144.31;100.00;58022.63;5008127;28;20045;-47
2023/02/02 00:48:39;;;;;;;14.05;2.80;;;;;;;-144.31;100.00;58022.63;5005787;28;20050;-54
2023/02/02 00:51:34;;;;;;;12.75;3.63;;;;;;;-144.31;100.00;58022.63;5008224;28;20037;-53
2023/02/02 00:54:32;;;;;;;16.48;3.60;;;;;;;-144.31;100.00;58022.63;5020395;28;20049;-53
2023/02/02 00:57:40;;;;;;;10.57;2.83;;;;;;;-144.31;100.00;58022.63;5022901;28;20057;-46
2023/02/02 01:00:29;;;;;;;10.20;2.83;;;;;;;-144.31;100.00;58022.63;5007794;28;20406;-54
2023/02/02 01:03:25;;;;;;;11.82;2.92;;;;;;;-144.31;100.00;58022.63;5007806;28;20029;-52
2023/02/02 01:06:18;;;;;;;12.27;2.55;;;;;;;-144.31;100.00;58022.63;5006615;28;20041;-54
2023/02/02 01:09:12;;;;;;;10.52;3.17;;;;;;;-144.31;100.00;58022.63;5007672;28;20112;-50
2023/02/02 01:12:06;;;;;;;9.73;2.78;;;;;;;-144.31;100.00;58022.63;5006548;28;20045;-49
2023/02/02 01:14:47;;;;;;;7.53;2.95;;;;;;;-144.31;100.00;58022.63;5007376;28;20046;-47
2023/02/02 01:17:39;;;;;;;4.13;2.10;;;;;;;-144.31;100.00;58022.63;5007600;28;20399;-56
2023/02/02 01:20:42;;;;;;;14.82;2.67;;;;;;;-144.31;100.00;58022.63;5005885;28;20592;-50
2023/02/02 01:23:31;;;;;;;9.57;2.78;;;;;;;-144.31;100.00;58022.63;5005645;28;20132;-53
2023/02/02 01:26:19;;;;;;;10.18;3.05;;;;;;;-144.31;100.00;58022.63;5007734;28;20041;-46
2023/02/02 01:29:17;;;;;;;15.02;2.75;;;;;;;-144.31;100.00;58022.63;5004692;28;20406;-57
2023/02/02 01:32:09;;;;;;;11.25;3.38;;;;;;;-144.31;100.00;58022.63;5006843;28;20037;-46
2023/02/02 01:35:02;;;;;;;7.85;3.17;;;;;;;-144.31;100.00;58022.63;5006978;28;20045;-50
2023/02/02 01:37:37;;;;;;;8.50;2.75;;;;;;;-144.31;100.00;58022.63;5022791;28;20471;-47
2023/02/02 01:40:23;;;;;;;11.52;2.95;;;;;;;-144.31;100.00;58022.63;5006665;28;20574;-51
2023/02/02 01:43:20;;;;;;;11.33;3.07;;;;;;;-144.31;100.00;58022.63;5022301;28;20038;-52
2023/02/02 01:46:11;;;;;;;12.38;3.10;;;;;;;-144.31;100.00;58022.63;5020864;28;20050;-51
2023/02/02 01:48:55;;;;;;;19.17;3.78;;;;;;;-144.31;100.00;58022.63;5022169;28;20046;-52
2023/02/02 01:51:50;;;;;;;8.85;3.08;;;;;;;-144.31;100.00;58022.63;5006665;28;20101;-45
2023/02/02 01:55:16;;;;;;;13.98;3.40;;;;;;;-144.31;100.00;58022.63;5022174;28;20182;-49
2023/02/02 01:58:18;;;;;;;10.27;3.28;;;;;;;-144.31;100.00;58022.63;5022103;28;20049;-54
2023/02/02 02:01:10;;;;;;;17.75;3.65;;;;;;;-144.31;100.00;58022.63;5003282;28;20491;-55
2023/02/02 02:03:59;;;;;;;12.52;4.10;;;;;;;-144.31;100.00;58022.63;5010183;28;20048;-51
2023/02/02 02:06:38;;;;;;;22.08;5.10;;;;;;;-144.31;100.00;58022.63;5021531;28;20192;-55
2023/02/02 02:09:28;;;;;;;17.10;3.63;;;;;;;-144.31;100.00;58022.63;5003127;28;20117;-50
2023/02/02 02:12:14;;;;;;;18.00;3.90;;;;;;;-144.31;100.00;58022.63;4989044;28;20120;-51
2023/02/02 02:18:32;;;;;;;12.68;3.67;;;;;;;-144.31;100.00;58022.63;5020005;28;20053;-48
2023/02/02 02:29:38;;;;;;;13.77;3.35;;;;;;;-144.31;100.00;58022.63;5006390;28;20050;-54
2023/02/02 02:32:50;;;;;;;12.60;3.38;;;;;;;-144.31;100.00;58022.63;5006610;28;20061;-48
2023/02/02 02:36:18;;;;;;;15.23;3.50;;;;;;;-144.31;100.00;58022.63;5002555;28;20084;-54
2023/02/02 02:39:29;;;;;;;21.58;3.78;;;;;;;-144.31;100.00;58022.63;5021502;28;20065;-54
2023/02/02 02:42:32;;;;;;;14.23;3.83;;;;;;;-144.31;100.00;58022.63;5003278;28;20065;-54
2023/02/02 02:45:25;;;;;;;13.98;4.00;;;;;;;-144.31;100.00;58022.63;5021458;28;20084;-52
2023/02/02 02:48:15;;;;;;;13.57;3.97;;;;;;;-144.31;100.00;58022.63;5021617;28;20033;-54
2023/02/02 02:51:27;;;;;;;13.50;4.22;;;;;;;-144.31;100.00;58022.63;5021006;28;20038;-52
2023/02/02 02:54:34;;;;;;;9.27;3.20;;;;;;;-144.31;100.00;58022.63;5003497;28;20620;-52
2023/02/02 02:57:54;;;;;;;8.18;3.00;;;;;;;-144.31;100.00;58022.63;5019007;28;20054;-48
2023/02/02 03:01:30;;;;;;;13.70;2.90;;;;;;;-144.31;100.00;58022.63;5005754;28;20042;-52
2023/02/02 03:05:06;;;;;;;9.88;3.70;;;;;;;-144.31;100.00;58022.63;5004994;28;20046;-52
2023/02/02 03:08:39;;;;;;;14.50;3.20;;;;;;;-144.31;100.00;58022.63;5005765;28;20133;-53
2023/02/02 03:12:02;;;;;;;8.68;2.80;;;;;;;-144.31;100.00;58022.63;5005660;28;20478;-50
2023/02/02 03:15:19;;;;;;;22.52;3.40;;;;;;;-144.31;100.00;58022.63;5006055;28;20513;-56
2023/02/02 03:18:07;;;;;;;17.25;3.70;;;;;;;-144.31;100.00;58022.63;5019533;28;20049;-49
2023/02/02 03:20:51;;;;;;;19.35;4.38;;;;;;;-144.31;100.00;58022.63;5005723;28;20092;-53
2023/02/02 03:23:42;;;;;;;18.25;4.57;;;;;;;-144.31;100.00;58022.63;5005598;28;20074;-51
2023/02/02 03:26:54;;;;;;;14.25;4.32;;;;;;;-144.31;100.00;58022.63;5005022;28;20538;-55
2023/02/02 03:29:40;;;;;;;20.20;3.90;;;;;;;-144.31;100.00;58022.63;5020470;28;20121;-54
2023/02/02 03:32:55;;;;;;;15.65;4.38;;;;;;;-144.31;100.00;58022.63;5006247;28;20085;-50
2023/02/02 03:36:00;;;;;;;19.65;5.28;;;;;;;-144.31;100.00;58022.63;5005590;28;20065;-66
2023/02/02 03:39:00;;;;;;;13.13;4.20;;;;;;;-144.31;100.00;58022.63;5005852;28;20046;-66
2023/02/02 03:41:41;;;;;;;14.38;4.03;;;;;;;-144.31;100.00;58022.63;5006052;28;20073;-65
2023/02/02 03:45:04;;;;;;;18.50;3.90;;;;;;;-144.31;100.00;58022.63;5005690;28;20045;-66
2023/02/02 03:47:57;;;;;;;13.80;3.63;;;;;;;-144.31;100.00;58022.63;5005572;28;20046;-65
2023/02/02 03:51:18;;;;;;;19.35;3.97;;;;;;;-144.31;100.00;58022.63;5005557;28;20030;-64
2023/02/02 03:54:13;;;;;;;15.38;3.58;;;;;;;-144.31;100.00;58022.63;5005791;28;20042;-64
2023/02/02 03:57:10;;;;;;;18.80;4.70;;;;;;;-144.31;100.00;58022.63;5022686;28;20050;-63
2023/02/02 04:00:11;;;;;;;21.98;4.53;;;;;;;-144.31;100.00;58022.63;5024121;28;20060;-64
2023/02/02 04:03:37;;;;;;;14.32;4.40;;;;;;;-144.31;100.00;58022.63;5008875;28;20045;-62
2023/02/02 04:06:54;;;;;;;16.33;4.57;;;;;;;-144.31;100.00;58022.63;5009473;28;20046;-62
2023/02/02 04:10:13;;;;;;;17.75;3.45;;;;;;;-144.31;100.00;58022.63;5008897;28;20092;-63
2023/02/02 04:13:35;;;;;;;12.23;3.55;;;;;;;-144.31;100.00;58022.63;5008691;28;20046;-63
2023/02/02 04:16:43;;;;;;;14.10;4.35;;;;;;;-144.31;100.00;58022.63;5008756;28;20045;-50
2023/02/02 04:19:56;;;;;;;14.43;4.63;;;;;;;-144.31;100.00;58022.63;5007762;28;20156;-51
2023/02/02 04:23:15;;;;;;;14.18;3.30;;;;;;;-144.31;100.00;58022.63;5008435;28;20041;-51
2023/02/02 04:26:25;;;;;;;15.40;4.50;;;;;;;-144.31;100.00;58022.63;5006691;28;20060;-54
2023/02/02 04:29:46;;;;;;;9.98;3.70;;;;;;;-144.31;100.00;58022.63;5008549;28;20052;-54
2023/02/02 04:33:11;;;;;;;9.93;2.95;;;;;;;-144.31;100.00;58022.63;5009089;28;20038;-50
2023/02/02 04:36:29;;;;;;;7.85;3.13;;;;;;;-144.31;100.00;58022.63;5006994;28;20045;-52
2023/02/02 04:39:50;;;;;;;10.63;3.85;;;;;;;-144.31;100.00;58022.63;5008321;28;20486;-57
2023/02/02 04:42:55;;;;;;;15.77;4.65;;;;;;;-144.31;100.00;58022.63;5008088;28;20048;-53
2023/02/02 04:45:56;;;;;;;13.73;3.70;;;;;;;-144.31;100.00;58022.63;5005338;28;20130;-48
2023/02/02 04:49:19;;;;;;;12.30;4.00;;;;;;;-144.31;100.00;58022.63;5006576;28;20041;-49
2023/02/02 04:52:31;;;;;;;20.52;4.75;;;;;;;-144.31;100.00;58022.63;4990765;28;20449;-54
2023/02/02 04:55:47;;;;;;;7.15;3.35;;;;;;;-144.31;100.00;58022.63;5007445;28;20049;-54
2023/02/02 04:59:09;;;;;;;18.63;3.83;;;;;;;-144.31;100.00;58022.63;5007963;28;20402;-50
2023/02/02 05:02:37;;;;;;;17.30;3.92;;;;;;;-144.31;100.00;58022.63;5007658;28;20050;-51
2023/02/02 05:06:00;;;;;;;21.42;4.40;;;;;;;-144.31;100.00;58022.63;5005995;28;20044;-52
2023/02/02 05:09:24;;;;;;;13.80;3.75;;;;;;;-144.31;100.00;58022.63;5006900;28;20038;-52
2023/02/02 05:12:43;;;;;;;11.55;3.03;;;;;;;-144.31;100.00;58022.63;5007771;28;20038;-52
2023/02/02 05:16:04;;;;;;;11.50;3.53;;;;;;;-144.31;100.00;58022.63;5007391;28;20056;-51
2023/02/02 05:19:28;;;;;;;13.73;3.55;;;;;;;-144.31;100.00;58022.63;5007572;28;20100;-52
2023/02/02 05:22:51;;;;;;;15.68;3.90;;;;;;;-144.31;100.00;58022.63;5007569;28;20068;-54
2023/02/02 05:26:17;;;;;;;11.80;3.72;;;;;;;-144.31;100.00;58022.63;5007435;28;20038;-53
2023/02/02 05:29:40;;;;;;;18.15;4.32;;;;;;;-144.31;100.00;58022.63;5022603;28;20049;-51
2023/02/02 05:32:59;;;;;;;18.05;4.35;;;;;;;-144.31;100.00;58022.63;5007155;28;20095;-55
2023/02/02 05:35:51;;;;;;;11.90;4.15;;;;;;;-144.31;100.00;58022.63;5007245;28;20540;-52
2023/02/02 05:38:31;;;;;;;19.08;4.20;;;;;;;-144.31;100.00;58022.63;5006679;28;20599;-56
2023/02/02 05:41:33;;;;;;;13.07;3.75;;;;;;;-144.31;100.00;58022.63;5007652;28;20137;-51
2023/02/02 05:44:41;;;;;;;12.52;4.40;;;;;;;-144.31;100.00;58022.63;5007569;28;20069;-54
2023/02/02 05:47:42;;;;;;;23.05;4.72;;;;;;;-144.31;100.00;58022.63;5006811;28;20044;-49
2023/02/02 05:50:26;;;;;;;23.83;4.63;;;;;;;-144.31;100.00;58022.63;5006892;28;20121;-51
2023/02/02 05:53:46;;;;;;;11.07;3.33;;;;;;;-144.31;100.00;58022.63;5006986;28;20124;-54
2023/02/02 05:57:08;;;;;;;8.93;3.15;;;;;;;-144.31;100.00;58022.63;5013736;28;20081;-53
2023/02/02 06:00:17;;;;;;;14.18;3.60;;;;;;;-144.31;100.00;58022.63;5006547;28;20049;-53
2023/02/02 06:03:32;;;;;;;14.45;3.92;;;;;;;-144.31;100.00;58022.63;5006113;28;20037;-52
2023/02/02 06:06:23;;;;;;;14.65;4.10;;;;;;;-144.31;100.00;58022.63;5005548;28;20048;-52
2023/02/02 06:09:19;;;;;;;18.42;4.05;;;;;;;-144.31;100.00;58022.63;5007035;28;20068;-55
2023/02/02 06:12:07;;;;;;;12.48;3.75;;;;;;;-144.31;100.00;58022.63;5004346;28;20069;-53
2023/02/02 06:15:19;;;;;;;15.90;3.53;;;;;;;-144.31;100.00;58022.63;5005043;28;20045;-53
2023/02/02 06:18:32;;;;;;;12.30;3.95;;;;;;;-144.31;100.00;58022.63;5005025;28;20041;-52
2023/02/02 06:21:29;;;;;;;26.20;4.55;;;;;;;-144.31;100.00;58022.63;5003752;28;20050;-48
2023/02/02 06:24:07;;;;;;;13.35;3.88;;;;;;;-144.31;100.00;58022.63;5005103;28;20049;-51
2023/02/02 06:27:12;;;;;;;11.25;3.83;;;;;;;-144.31;100.00;58022.63;5006710;28;20501;-53
2023/02/02 06:30:14;;;;;;;20.02;3.78;;;;;;;-144.31;100.00;58022.63;5005901;28;20100;-48
2023/02/02 06:33:16;;;;;;;19.15;4.10;;;;;;;-144.31;100.00;58022.63;5006641;28;20041;-49
2023/02/02 06:36:05;;;;;;;14.57;3.75;;;;;;;-144.31;100.00;58022.63;5005881;28;20125;-49
2023/02/02 06:39:21;;;;;;;12.45;4.00;;;;;;;-144.31;100.00;58022.63;5006748;28;20038;-55
2023/02/02 06:42:42;;;;;;;17.40;4.55;;;;;;;-144.31;100.00;58022.63;5006752;28;20052;-52
2023/02/02 06:46:05;;;;;;;12.88;3.95;;;;;;;-144.31;100.00;58022.63;4995007;28;20046;-48
2023/02/02 06:49:28;;;;;;;18.67;5.68;;;;;;;-144.31;100.00;58022.63;5006004;28;20474;-51
2023/02/02 06:52:51;;;;;;;18.17;4.50;;;;;;;-144.31;100.00;58022.63;5005822;28;20069;-52
2023/02/02 06:56:16;;;;;;;11.88;3.83;;;;;;;-144.31;100.00;58022.63;5006638;28;20046;-50
2023/02/02 06:59:40;;;;;;;18.10;3.80;;;;;;;-144.31;100.00;58022.63;5001956;28;20103;-52
2023/02/02 07:03:07;;;;;;;18.30;4.13;;;;;;;-144.31;100.00;58022.63;5004130;28;20037;-53
2023/02/02 07:06:31;;;;;;;18.58;5.50;;;;;;;-144.31;100.00;58022.63;5004047;28;20042;-58
2023/02/02 07:09:55;;;;;;;20.00;4.32;;;;;;;-144.31;100.00;58022.63;5000020;28;20038;-54
2023/02/02 07:13:18;;;;;;;19.33;4.18;;;;;;;-144.31;100.00;58022.63;5001860;28;20167;-57
2023/02/02 07:16:42;;;;;;;19.48;5.28;;;;;;;-144.31;100.00;58022.63;5000209;28;20113;-53
2023/02/02 07:20:06;;;;;;;15.68;4.50;;;;;;;-144.31;100.00;58022.63;5001294;28;20726;-52
2023/02/02 07:23:30;;;;;;;9.65;3.55;;;;;;;-144.31;100.00;58022.63;4999219;28;20050;-48
2023/02/02 07:26:58;;;;;;;16.33;4.22;;;;;;;-144.31;100.00;58022.63;5004509;28;20041;-54
2023/02/02 07:30:24;;;;;;;11.57;4.30;;;;;;;-144.31;100.00;58022.63;5005733;28;20034;-54
2023/02/02 07:33:48;;;;;;;13.52;4.95;;;;;;;-144.31;100.00;58022.63;5006319;28;20050;-51
2023/02/02 07:37:13;;;;;;;18.67;5.05;;;;;;;-144.31;100.00;58022.63;5010126;28;20180;-48
2023/02/02 07:40:37;;;;;;;11.10;2.87;;;;;;;-144.31;100.00;58022.63;5009777;28;20053;-54
2023/02/02 07:44:02;;;;;;;12.50;4.22;;;;;;;-144.31;100.00;58022.63;5010234;28;20856;-49
2023/02/02 07:47:26;;;;;;;15.73;3.42;;;;;;;-144.31;100.00;58022.63;5009925;28;20423;-48
2023/02/02 07:50:50;;;;;;;8.52;3.50;;;;;;;-144.31;100.00;58022.63;5009900;28;20416;-51
2023/02/02 07:54:14;;;;;;;15.35;4.45;;;;;;;-144.31;100.00;58022.63;4996758;28;20046;-50
2023/02/02 07:57:38;;;;;;;10.68;4.25;;;;;;;-144.31;100.00;58022.63;5009185;28;20037;-56
2023/02/02 08:01:03;;;;;;;13.05;4.10;;;;;;;-144.31;100.00;58022.63;5009232;28;20074;-50
2023/02/02 08:04:28;;;;;;;14.57;4.07;;;;;;;-144.31;100.00;58022.63;5024680;28;20448;-55
2023/02/02 08:07:52;;;;;;;22.67;4.22;;;;;;;-144.31;100.00;58022.63;5009404;28;20042;-52
2023/02/02 08:11:17;;;;;;;14.02;4.20;;;;;;;-144.31;100.00;58022.63;5009169;28;20038;-50
2023/02/02 08:14:42;;;;;;;14.50;4.55;;;;;;;-144.31;100.00;58022.63;5009487;28;20042;-57
2023/02/02 08:18:04;;;;;;;9.30;3.10;;;;;;;-144.31;100.00;58022.63;5009572;28;20044;-52
2023/02/02 08:21:28;;;;;;;13.77;3.85;;;;;;;-144.31;100.00;58022.63;5009199;28;20056;-51
2023/02/02 08:24:52;;;;;;;11.27;4.53;;;;;;;-144.31;100.00;58022.63;5013010;28;20061;-52
2023/02/02 08:28:16;;;;;;;16.77;4.03;;;;;;;-144.31;100.00;58022.63;5009276;28;20042;-59
2023/02/02 08:31:41;;;;;;;13.55;4.07;;;;;;;-144.31;100.00;58022.63;5008785;28;20053;-53
2023/02/02 08:35:09;;;;;;;11.38;4.07;;;;;;;-144.31;100.00;58022.63;5008970;28;20049;-51
2023/02/02 08:38:33;;;;;;;21.13;4.82;;;;;;;-144.31;100.00;58022.63;5023930;28;20141;-50
2023/02/02 08:42:03;;;;;;;12.90;3.70;;;;;;;-144.31;100.00;58022.63;5008883;28;20042;-54
2023/02/02 08:45:28;;;;;;;21.45;3.55;;;;;;;-144.31;100.00;58022.63;5008858;28;20399;-50
2023/02/02 08:48:54;;;;;;;7.35;3.22;;;;;;;-144.31;100.00;58022.63;5006827;28;20116;-54
2023/02/02 08:52:18;;;;;;;13.02;3.30;;;;;;;-144.31;100.00;58022.63;5006939;28;20726;-55
2023/02/02 08:55:42;;;;;;;16.00;4.00;;;;;;;-144.31;100.00;58022.63;5007785;28;20046;-59
2023/02/02 08:59:06;;;;;;;10.68;3.38;;;;;;;-144.31;100.00;58022.63;5017942;28;20049;-55
2023/02/02 09:02:31;;;;;;;12.57;3.90;;;;;;;-144.31;100.00;58022.63;5003844;28;20069;-56
2023/02/02 09:05:55;;;;;;;10.38;3.75;;;;;;;-144.31;100.00;58022.63;5002874;28;20116;-51
2023/02/02 09:09:19;;;;;;;14.10;3.58;;;;;;;-144.31;100.00;58022.63;5003279;28;20045;-50
2023/02/02 09:12:43;;;;;;;14.32;4.22;;;;;;;-144.31;100.00;58022.63;5005341;28;20215;-61
2023/02/02 09:16:08;;;;;;;13.70;4.53;;;;;;;-144.31;100.00;58022.63;4996741;28;20042;-60
2023/02/02 09:19:32;;;;;;;12.38;3.72;;;;;;;-144.31;100.00;58022.63;5004864;28;20073;-59
2023/02/02 09:22:56;;;;;;;21.13;4.25;;;;;;;-144.31;100.00;58022.63;5002738;28;20049;-60
2023/02/02 09:26:23;;;;;;;15.77;3.75;;;;;;;-144.31;100.00;58022.63;5004052;28;20030;-59
2023/02/02 09:29:52;;;;;;;16.35;4.32;;;;;;;-144.31;100.00;58022.63;5004424;28;20092;-60
2023/02/02 09:33:16;;;;;;;19.73;4.18;;;;;;;-144.31;100.00;58022.63;5004014;28;20128;-60
2023/02/02 09:36:40;;;;;;;16.48;4.30;;;;;;;-144.31;100.00;58022.63;5003851;28;20077;-61
2023/02/02 09:40:05;;;;;;;22.10;5.40;;;;;;;-144.31;100.00;58022.63;5003470;28;20125;-60
2023/02/02 09:43:29;;;;;;;9.05;3.83;;;;;;;-144.31;100.00;58022.63;5004893;28;20053;-60
2023/02/02 09:47:12;;;;;;;16.33;4.38;;;;;;;-144.31;100.00;58022.63;4992403;28;20475;-52
2023/02/02 09:50:58;;;;;;;14.82;4.68;;;;;;;-144.31;100.00;58022.63;5002534;28;20141;-56
2023/02/02 09:54:42;;;;;;;11.80;4.20;;;;;;;-144.31;100.00;58022.63;5003719;28;20552;-57
2023/02/02 09:58:24;;;;;;;15.10;4.38;;;;;;;-144.31;100.00;58022.63;5002711;28;20064;-59
2023/02/02 10:01:55;;;;;;;18.38;4.72;;;;;;;-144.31;100.00;58022.63;5003292;28;20180;-62
2023/02/02 10:05:35;;;;;;;12.48;4.15;;;;;;;-144.31;100.00;58022.63;5004100;28;20042;-59
2023/02/02 10:09:05;;;;;;;9.45;4.03;;;;;;;-144.31;100.00;58022.63;5003153;28;20045;-58
2023/02/02 10:12:48;;;;;;;12.65;3.67;;;;;;;-144.31;100.00;58022.63;5004027;28;20042;-56
2023/02/02 10:16:16;;;;;;;11.85;4.18;;;;;;;-144.31;100.00;58022.63;5003350;28;20057;-57
2023/02/02 10:19:44;;;;;;;23.70;4.85;;;;;;;-144.31;100.00;58022.63;5003958;28;20038;-63
2023/02/02 10:23:20;;;;;;;25.67;5.15;;;;;;;-144.31;100.00;58022.63;5002178;28;20620;-62
2023/02/02 10:26:53;;;;;;;16.60;4.53;;;;;;;-144.31;100.00;58022.63;5003813;28;20041;-64
2023/02/02 10:30:24;;;;;;;15.55;4.55;;;;;;;-144.31;100.00;58022.63;5002754;28;20077;-59
2023/02/02 10:34:15;;;;;;;15.85;4.57;;;;;;;-144.31;100.00;58022.63;5004255;28;20056;-59
2023/02/02 10:37:53;;;;;;;10.50;3.85;;;;;;;-144.31;100.00;58022.63;5002969;28;20046;-59
2023/02/02 10:41:50;;;;;;;18.08;4.93;;;;;;;-144.31;100.00;58022.63;5002924;28;20672;-58
2023/02/02 10:45:20;;;;;;;16.95;4.53;;;;;;;-144.31;100.00;58022.63;5002559;28;20481;-59
2023/02/02 10:48:45;;;;;;;11.77;4.88;;;;;;;-144.31;100.00;58022.63;5003169;28;20041;-60
2023/02/02 10:52:25;;;;;;;20.07;3.77;;;;;;;-144.31;100.00;58022.63;5003517;28;20053;-59
2023/02/02 10:56:01;;;;;;;9.60;3.80;;;;;;;-144.31;100.00;58022.63;5002713;28;20075;-58
2023/02/02 11:00:04;;;;;;;13.73;4.10;;;;;;;-144.31;100.00;58022.63;5002531;28;20046;-58
2023/02/02 11:03:30;;;;;;;13.82;3.75;;;;;;;-144.31;100.00;58022.63;4997337;28;20058;-58
2023/02/02 11:06:56;;;;;;;10.52;3.80;;;;;;;-144.31;100.00;58022.63;5005389;28;20434;-58
2023/02/02 11:10:31;;;;;;;13.37;4.30;;;;;;;-144.31;100.00;58022.63;5006701;28;20418;-59
2023/02/02 11:14:07;;;;;;;8.18;3.78;;;;;;;-144.31;100.00;58022.63;5007481;28;20046;-58
2023/02/02 11:17:34;;;;;;;9.95;3.85;;;;;;;-144.31;100.00;58022.63;5006868;28;20042;-59
2023/02/02 11:21:00;;;;;;;12.52;4.88;;;;;;;-144.31;100.00;58022.63;5006185;28;20030;-58
2023/02/02 11:24:40;;;;;;;16.67;4.70;;;;;;;-144.31;100.00;58022.63;5004410;28;20513;-59
2023/02/02 11:28:10;;;;;;;12.38;3.78;;;;;;;-144.31;100.00;58022.63;5005349;28;20042;-60
2023/02/02 11:31:36;;;;;;;14.02;4.63;;;;;;;-144.31;100.00;58022.63;5005607;28;20416;-60
2023/02/02 11:35:28;;;;;;;17.20;4.63;;;;;;;-144.31;100.00;58022.63;5000030;28;20042;-59
2023/02/02 11:39:13;;;;;;;19.70;4.30;;;;;;;-144.31;100.00;58022.63;5006434;28;20077;-60
2023/02/02 11:42:43;;;;;;;15.53;3.43;;;;;;;-144.31;100.00;58022.63;5007376;28;20073;-59
2023/02/02 11:46:27;;;;;;;16.35;3.78;;;;;;;-144.31;100.00;58022.63;5006401;28;20104;-60
2023/02/02 11:49:53;;;;;;;19.05;4.82;;;;;;;-144.31;100.00;58022.63;5005757;28;20376;-60
2023/02/02 11:53:27;;;;;;;8.13;3.45;;;;;;;-144.31;100.00;58022.63;4997134;28;20042;-61
2023/02/02 11:56:53;;;;;;;13.05;4.20;;;;;;;-144.31;100.00;58022.63;5005431;28;20056;-61
2023/02/02 12:00:29;;;;;;;11.50;4.00;;;;;;;-144.31;100.00;58022.63;5005396;28;20041;-61
2023/02/02 12:03:57;;;;;;;7.80;3.35;;;;;;;-144.31;100.00;58022.63;5004492;28;20056;-60
2023/02/02 12:07:31;;;;;;;17.42;4.50;;;;;;;-144.31;100.00;58022.63;5006655;28;20037;-59
2023/02/02 12:10:59;;;;;;;24.23;4.30;;;;;;;-144.31;100.00;58022.63;5005521;28;20038;-61
2023/02/02 12:14:36;;;;;;;13.75;4.05;;;;;;;-144.31;100.00;58022.63;5006199;28;20085;-57
2023/02/02 12:18:12;;;;;;;16.75;4.35;;;;;;;-144.31;100.00;58022.63;5005647;28;20045;-59
2023/02/02 12:22:08;;;;;;;14.10;3.33;;;;;;;-144.31;100.00;58022.63;4992187;28;20454;-60
2023/02/02 12:25:57;;;;;;;11.77;3.25;;;;;;;-144.31;100.00;58022.63;5021486;28;20505;-59
2023/02/02 12:29:43;;;;;;;8.20;3.35;;;;;;;-144.31;100.00;58022.63;5006213;28;20508;-59
2023/02/02 12:33:28;;;;;;;11.82;3.88;;;;;;;-144.31;100.00;58022.63;5006699;28;20050;-59
2023/02/02 12:37:12;;;;;;;15.57;4.13;;;;;;;-144.31;100.00;58022.63;5005814;28;20042;-59
2023/02/02 12:40:57;;;;;;;12.75;3.92;;;;;;;-144.31;100.00;58022.63;5008487;28;20513;-59
2023/02/02 12:44:35;;;;;;;12.75;3.90;;;;;;;-144.31;100.00;58022.63;5008656;28;20046;-59
2023/02/02 12:48:46;;;;;;;10.52;3.67;;;;;;;-144.31;100.00;58022.63;5007641;28;20050;-59
2023/02/02 12:52:14;;;;;;;18.73;4.25;;;;;;;-144.31;100.00;58022.63;4978760;28;20058;-60
2023/02/02 12:55:56;;;;;;;20.38;4.43;;;;;;;-144.31;100.00;58022.63;5007629;28;21535;-59
2023/02/02 12:59:58;;;;;;;7.65;3.15;;;;;;;-144.31;100.00;58022.63;5019554;28;20065;-60
2023/02/02 13:03:41;;;;;;;17.38;4.75;;;;;;;-144.31;100.00;58022.63;5008062;28;20045;-58
2023/02/02 13:07:38;;;;;;;15.77;4.10;;;;;;;-144.31;100.00;58022.63;5008290;28;20072;-58
2023/02/02 13:11:05;;;;;;;14.75;4.22;;;;;;;-144.31;100.00;58022.63;5002932;28;20141;-56
2023/02/02 13:14:45;;;;;;;8.43;4.13;;;;;;;-144.31;100.00;58022.63;5004494;28;20073;-54
2023/02/02 13:18:34;;;;;;;12.43;5.10;;;;;;;-144.31;100.00;58022.63;5008107;28;20112;-58
2023/02/02 13:22:01;;;;;;;8.90;4.10;;;;;;;-144.31;100.00;58022.63;5007644;28;20050;-55
2023/02/02 13:25:29;;;;;;;16.20;4.97;;;;;;;-144.31;100.00;58022.63;5002218;28;20052;-55
2023/02/02 13:29:04;;;;;;;13.10;5.28;;;;;;;-144.31;100.00;58022.63;5006778;28;20472;-55
2023/02/02 13:32:48;;;;;;;15.20;3.95;;;;;;;-144.31;100.00;58022.63;5007616;28;20104;-56
2023/02/02 13:36:27;;;;;;;13.05;4.38;;;;;;;-144.31;100.00;58022.63;5021965;28;20049;-58
2023/02/02 13:39:55;;;;;;;17.42;4.97;;;;;;;-144.31;100.00;58022.63;5007575;28;20050;-58
2023/02/02 13:43:38;;;;;;;12.80;4.75;;;;;;;-144.31;100.00;58022.63;5007839;28;20045;-58
2023/02/02 13:47:46;;;;;;;15.73;4.50;;;;;;;-144.31;100.00;58022.63;5007170;28;20041;-57
2023/02/02 13:51:20;;;;;;;12.93;4.57;;;;;;;-144.31;100.00;58022.63;5003581;28;20046;-56
2023/02/02 13:54:12;;;;;;;16.15;4.63;;;;;;;;;;5075635;28;20473;-59
2023/02/02 13:56:56;;;;;;;16.02;5.50;;;;;;;;;;5071517;28;20036;-59
2023/02/02 13:59:40;;;;;;;16.73;4.70;;;;;;;;;;5064663;28;20112;-59
2023/02/02 14:02:19;;;;;;;16.13;4.35;;;;;;;;;;5064703;28;20079;-59
2023/02/02 14:04:50;;;;;;;12.93;4.75;;;;;;;;;;5065065;28;20374;-59
2023/02/02 14:07:24;;;;;;;15.25;4.47;;;;;;;;;;5064978;28;20496;-59
2023/02/02 14:09:50;;;;;;;10.20;3.47;;;;;;;;;;5070029;28;20484;-59
2023/02/02 14:12:25;;;;;;;11.27;3.92;;;;;;;;;;5072327;28;20115;-60
2023/02/02 14:14:50;;;;;;;12.40;4.60;;;;;;;;;;5070804;28;20123;-60
2023/02/02 14:17:16;;;;;;;11.70;3.97;;;;;;;;;;5055707;28;20136;-59
2023/02/02 14:19:52;;;;;;;20.33;4.18;;;;;;;;;;5065901;28;20037;-59
2023/02/02 14:22:18;;;;;;;17.70;4.55;;;;;;;;;;5059870;28;20024;-58
2023/02/02 14:24:45;;;;;;;13.05;4.38;;;;;;;;;;5061571;28;20025;-60
2023/02/02 14:27:14;;;;;;;16.02;4.03;;;;;;;;;;5065079;28;20044;-60
2023/02/02 14:29:42;;;;;;;13.15;3.97;;;;;;;;;;5060996;28;20044;-59
2023/02/02 14:32:33;;;;;;;17.90;4.60;;;;;;;;;;5063754;28;20094;-60
2023/02/02 14:35:19;;;;;;;12.23;3.78;;;;;;;;;;5056470;28;20041;-60
2023/02/02 14:38:04;;;;;;;18.63;4.03;;;;;;;;;;5059439;28;20037;-59
2023/02/02 14:40:49;;;;;;;12.02;3.70;;;;;;;;;;5061067;28;20131;-59
2023/02/02 14:43:45;;;;;;;15.63;3.90;;;;;;;;;;5059630;28;20285;-59
2023/02/02 14:46:10;;;;;;;11.57;3.20;;;;;;;;;;5065043;28;20040;-57
2023/02/02 14:48:37;;;;;;;18.33;3.60;;;;;;;;;;5064572;28;20443;-59
2023/02/02 14:51:10;;;;;;;14.13;3.83;;;;;;;;;;5058430;28;20028;-59
2023/02/02 14:53:37;;;;;;;13.20;3.70;;;;;;;;;;5064984;28;20076;-59
2023/02/02 14:56:10;;;;;;;13.77;3.20;;;;;;;;;;5060741;28;20029;-59
2023/02/02 14:58:36;;;;;;;9.23;3.70;;;;;;;;;;5059356;28;20464;-60
2023/02/02 15:01:04;;;;;;;13.75;3.78;;;;;;;;;;5058829;28;20132;-60
2023/02/02 15:03:48;;;;;;;12.57;3.45;;;;;;;;;;5056225;28;20024;-59
2023/02/02 15:06:32;;;;;;;11.43;4.10;;;;;;;;;;5054711;28;20501;-59
2023/02/02 15:09:16;;;;;;;8.95;3.22;;;;;;;;;;5049923;28;20238;-59